sensor_id;sensor_type;location;lat;lon;timestamp;pressure;altitude;pressure_sealevel;temperature;humidity
64141;BME280;50436;50.618;7.932;2023-09-30T00:00:04;97370.72;;;12.88;100.00
64141;BME280;50436;50.618;7.932;2023-09-30T00:02:56;97370.47;;;12.89;100.00
64141;BME280;50436;50.618;7.932;2023-09-30T00:05:42;97377.97;;;12.87;100.00
64141;BME280;50436;50.618;7.932;2023-09-30T00:08:27;97374.47;;;12.87;100.00
64141;BME280;50436;50.618;7.932;2023-09-30T00:11:15;97370.84;;;12.93;100.00
64141;BME280;50436;50.618;7.932;2023-09-30T00:14:03;97368.28;;;12.86;100.00
64141;BME280;50436;50.618;7.932;2023-09-30T00:16:50;97383.34;;;12.87;100.00
64141;BME280;50436;50.618;7.932;2023-09-30T00:19:36;97390.09;;;12.90;100.00
64141;BME280;50436;50.618;7.932;2023-09-30T00:22:22;97397.34;;;12.89;100.00
64141;BME280;50436;50.618;7.932;2023-09-30T00:25:08;97377.50;;;12.62;100.00
64141;BME280;50436;50.618;7.932;2023-09-30T00:27:54;97384.94;;;12.60;100.00
64141;BME280;50436;50.618;7.932;2023-09-30T00:30:40;97388.69;;;12.59;100.00
64141;BME280;50436;50.618;7.932;2023-09-30T00:33:26;97393.00;;;12.60;100.00
64141;BME280;50436;50.618;7.932;2023-09-30T00:36:12;97384.19;;;12.76;100.00
64141;BME280;50436;50.618;7.932;2023-09-30T00:38:58;97385.84;;;12.77;100.00
64141;BME280;50436;50.618;7.932;2023-09-30T00:41:44;97392.84;;;12.78;100.00
64141;BME280;50436;50.618;7.932;2023-09-30T00:44:30;97396.00;;;12.75;100.00
64141;BME280;50436;50.618;7.932;2023-09-30T00:47:16;97410.03;;;12.65;100.00
64141;BME280;50436;50.618;7.932;2023-09-30T00:50:03;97423.81;;;12.69;100.00
64141;BME280;50436;50.618;7.932;2023-09-30T00:52:50;97431.19;;;12.62;100.00
64141;BME280;50436;50.618;7.932;2023-09-30T00:55:36;97438.53;;;12.66;100.00
64141;BME280;50436;50.618;7.932;2023-09-30T00:58:25;97432.31;;;12.77;100.00
64141;BME280;50436;50.618;7.932;2023-09-30T01:01:14;97418.41;;;12.80;100.00
64141;BME280;50436;50.618;7.932;2023-09-30T01:04:01;97422.47;;;12.83;100.00
64141;BME280;50436;50.618;7.932;2023-09-30T01:06:47;97421.44;;;12.84;100.00
64141;BME280;50436;50.618;7.932;2023-09-30T01:09:33;97406.97;;;12.73;100.00
64141;BME280;50436;50.618;7.932;2023-09-30T01:12:19;97420.97;;;12.35;100.00
64141;BME280;50436;50.618;7.932;2023-09-30T01:15:05;97415.47;;;12.53;100.00
64141;BME280;50436;50.618;7.932;2023-09-30T01:17:55;97419.09;;;12.36;100.00
64141;BME280;50436;50.618;7.932;2023-09-30T01:20:40;97409.78;;;12.38;100.00
64141;BME280;50436;50.618;7.932;2023-09-30T01:23:26;97417.94;;;12.32;100.00
64141;BME280;50436;50.618;7.932;2023-09-30T01:26:13;97416.22;;;12.25;100.00
64141;BME280;50436;50.618;7.932;2023-09-30T01:29:00;97412.72;;;12.25;100.00
64141;BME280;50436;50.618;7.932;2023-09-30T01:31:46;97414.69;;;12.18;100.00
64141;BME280;50436;50.618;7.932;2023-09-30T01:34:36;97418.41;;;12.28;100.00
64141;BME280;50436;50.618;7.932;2023-09-30T01:37:21;97422.97;;;12.28;100.00
64141;BME280;50436;50.618;7.932;2023-09-30T01:40:08;97417.72;;;12.33;100.00
64141;BME280;50436;50.618;7.932;2023-09-30T01:42:57;97418.28;;;12.47;100.00
64141;BME280;50436;50.618;7.932;2023-09-30T01:45:43;97439.25;;;12.50;100.00
64141;BME280;50436;50.618;7.932;2023-09-30T01:48:30;97429.47;;;12.55;100.00
64141;BME280;50436;50.618;7.932;2023-09-30T01:51:15;97429.78;;;12.59;100.00
64141;BME280;50436;50.618;7.932;2023-09-30T01:54:01;97450.69;;;12.57;100.00
64141;BME280;50436;50.618;7.932;2023-09-30T01:56:47;97450.19;;;12.08;100.00
64141;BME280;50436;50.618;7.932;2023-09-30T01:59:33;97444.78;;;11.96;100.00
64141;BME280;50436;50.618;7.932;2023-09-30T02:02:19;97442.38;;;12.07;100.00
64141;BME280;50436;50.618;7.932;2023-09-30T02:05:05;97433.72;;;11.93;100.00
64141;BME280;50436;50.618;7.932;2023-09-30T02:07:53;97436.66;;;12.15;100.00
64141;BME280;50436;50.618;7.932;2023-09-30T02:10:40;97431.72;;;12.23;100.00
64141;BME280;50436;50.618;7.932;2023-09-30T02:13:26;97431.28;;;11.91;100.00
64141;BME280;50436;50.618;7.932;2023-09-30T02:16:14;97457.63;;;12.18;100.00
64141;BME280;50436;50.618;7.932;2023-09-30T02:19:00;97451.53;;;12.34;100.00
64141;BME280;50436;50.618;7.932;2023-09-30T02:21:46;97432.44;;;12.19;100.00
64141;BME280;50436;50.618;7.932;2023-09-30T02:24:33;97431.00;;;12.28;100.00
64141;BME280;50436;50.618;7.932;2023-09-30T02:27:19;97437.31;;;12.34;100.00
64141;BME280;50436;50.618;7.932;2023-09-30T02:30:06;97446.88;;;12.41;100.00
64141;BME280;50436;50.618;7.932;2023-09-30T02:32:52;97448.63;;;12.47;100.00
64141;BME280;50436;50.618;7.932;2023-09-30T02:35:38;97441.25;;;12.43;100.00
64141;BME280;50436;50.618;7.932;2023-09-30T02:38:27;97448.16;;;12.27;100.00
64141;BME280;50436;50.618;7.932;2023-09-30T02:41:15;97441.53;;;12.18;100.00
64141;BME280;50436;50.618;7.932;2023-09-30T02:44:04;97459.13;;;12.37;100.00
64141;BME280;50436;50.618;7.932;2023-09-30T02:46:50;97456.09;;;12.45;100.00
64141;BME280;50436;50.618;7.932;2023-09-30T02:49:37;97446.88;;;12.41;100.00
64141;BME280;50436;50.618;7.932;2023-09-30T02:52:26;97447.94;;;12.40;100.00
64141;BME280;50436;50.618;7.932;2023-09-30T02:55:12;97438.94;;;12.46;100.00
64141;BME280;50436;50.618;7.932;2023-09-30T02:57:58;97435.94;;;12.31;100.00
64141;BME280;50436;50.618;7.932;2023-09-30T03:00:49;97434.38;;;12.35;100.00
64141;BME280;50436;50.618;7.932;2023-09-30T03:03:35;97444.06;;;12.48;100.00
64141;BME280;50436;50.618;7.932;2023-09-30T03:06:21;97451.63;;;12.51;100.00
64141;BME280;50436;50.618;7.932;2023-09-30T03:09:07;97457.00;;;12.51;100.00
64141;BME280;50436;50.618;7.932;2023-09-30T03:11:55;97455.94;;;12.52;100.00
64141;BME280;50436;50.618;7.932;2023-09-30T03:14:41;97461.22;;;12.35;100.00
64141;BME280;50436;50.618;7.932;2023-09-30T03:17:28;97471.16;;;12.35;100.00
64141;BME280;50436;50.618;7.932;2023-09-30T03:20:14;97473.22;;;12.44;100.00
64141;BME280;50436;50.618;7.932;2023-09-30T03:23:04;97463.66;;;12.48;100.00
64141;BME280;50436;50.618;7.932;2023-09-30T03:25:50;97457.94;;;12.45;100.00
64141;BME280;50436;50.618;7.932;2023-09-30T03:28:37;97474.72;;;12.52;100.00
64141;BME280;50436;50.618;7.932;2023-09-30T03:31:23;97478.03;;;12.54;100.00
64141;BME280;50436;50.618;7.932;2023-09-30T03:34:09;97474.03;;;12.57;100.00
64141;BME280;50436;50.618;7.932;2023-09-30T03:36:55;97466.94;;;12.50;100.00
64141;BME280;50436;50.618;7.932;2023-09-30T03:39:44;97464.00;;;12.52;100.00
64141;BME280;50436;50.618;7.932;2023-09-30T03:42:30;97454.56;;;12.49;100.00
64141;BME280;50436;50.618;7.932;2023-09-30T03:45:15;97456.19;;;12.50;100.00
64141;BME280;50436;50.618;7.932;2023-09-30T03:48:02;97461.56;;;12.50;100.00
64141;BME280;50436;50.618;7.932;2023-09-30T03:50:48;97455.03;;;12.46;100.00
64141;BME280;50436;50.618;7.932;2023-09-30T03:53:34;97453.25;;;12.52;100.00
64141;BME280;50436;50.618;7.932;2023-09-30T03:56:21;97453.03;;;12.53;100.00
64141;BME280;50436;50.618;7.932;2023-09-30T03:59:08;97467.50;;;12.52;100.00
64141;BME280;50436;50.618;7.932;2023-09-30T04:01:54;97479.09;;;12.41;100.00
64141;BME280;50436;50.618;7.932;2023-09-30T04:04:40;97477.69;;;12.39;100.00
64141;BME280;50436;50.618;7.932;2023-09-30T04:07:26;97477.25;;;12.30;100.00
64141;BME280;50436;50.618;7.932;2023-09-30T04:10:13;97473.50;;;12.31;100.00
64141;BME280;50436;50.618;7.932;2023-09-30T04:12:58;97480.81;;;12.36;100.00
64141;BME280;50436;50.618;7.932;2023-09-30T04:15:44;97491.22;;;12.32;100.00
64141;BME280;50436;50.618;7.932;2023-09-30T04:18:32;97492.16;;;12.26;100.00
64141;BME280;50436;50.618;7.932;2023-09-30T04:21:20;97481.41;;;12.26;100.00
64141;BME280;50436;50.618;7.932;2023-09-30T04:24:06;97463.00;;;11.94;100.00
64141;BME280;50436;50.618;7.932;2023-09-30T04:26:52;97461.13;;;11.95;100.00
64141;BME280;50436;50.618;7.932;2023-09-30T04:29:43;97454.38;;;11.92;100.00
64141;BME280;50436;50.618;7.932;2023-09-30T04:32:29;97452.25;;;11.83;100.00
64141;BME280;50436;50.618;7.932;2023-09-30T04:35:15;97452.59;;;11.98;100.00
64141;BME280;50436;50.618;7.932;2023-09-30T04:38:01;97471.06;;;12.06;100.00
64141;BME280;50436;50.618;7.932;2023-09-30T04:40:47;97467.66;;;12.11;100.00
64141;BME280;50436;50.618;7.932;2023-09-30T04:43:36;97461.25;;;12.12;100.00
64141;BME280;50436;50.618;7.932;2023-09-30T04:46:25;97461.97;;;12.07;100.00
64141;BME280;50436;50.618;7.932;2023-09-30T04:49:14;97473.94;;;12.05;100.00
64141;BME280;50436;50.618;7.932;2023-09-30T04:52:00;97477.25;;;12.07;100.00
64141;BME280;50436;50.618;7.932;2023-09-30T04:54:45;97472.66;;;11.95;100.00
64141;BME280;50436;50.618;7.932;2023-09-30T04:57:32;97463.13;;;11.99;100.00
64141;BME280;50436;50.618;7.932;2023-09-30T05:00:19;97461.56;;;11.80;100.00
64141;BME280;50436;50.618;7.932;2023-09-30T05:03:10;97472.44;;;11.85;100.00
64141;BME280;50436;50.618;7.932;2023-09-30T05:05:56;97479.91;;;11.95;100.00
64141;BME280;50436;50.618;7.932;2023-09-30T05:08:43;97485.50;;;11.93;100.00
64141;BME280;50436;50.618;7.932;2023-09-30T05:11:29;97499.63;;;12.01;100.00
64141;BME280;50436;50.618;7.932;2023-09-30T05:14:15;97498.09;;;12.05;100.00
64141;BME280;50436;50.618;7.932;2023-09-30T05:17:02;97490.94;;;11.75;100.00
64141;BME280;50436;50.618;7.932;2023-09-30T05:19:50;97501.50;;;11.58;100.00
64141;BME280;50436;50.618;7.932;2023-09-30T05:22:36;97493.59;;;11.63;100.00
64141;BME280;50436;50.618;7.932;2023-09-30T05:25:22;97486.69;;;11.56;100.00
64141;BME280;50436;50.618;7.932;2023-09-30T05:28:12;97483.53;;;11.47;100.00
64141;BME280;50436;50.618;7.932;2023-09-30T05:30:59;97493.03;;;11.31;100.00
64141;BME280;50436;50.618;7.932;2023-09-30T05:33:44;97501.13;;;10.95;100.00
64141;BME280;50436;50.618;7.932;2023-09-30T05:36:30;97499.47;;;10.82;100.00
64141;BME280;50436;50.618;7.932;2023-09-30T05:39:16;97501.94;;;10.95;100.00
64141;BME280;50436;50.618;7.932;2023-09-30T05:42:05;97512.09;;;10.56;100.00
64141;BME280;50436;50.618;7.932;2023-09-30T05:44:52;97513.47;;;10.41;100.00
64141;BME280;50436;50.618;7.932;2023-09-30T05:47:39;97521.50;;;10.41;100.00
64141;BME280;50436;50.618;7.932;2023-09-30T05:50:25;97528.59;;;10.35;100.00
64141;BME280;50436;50.618;7.932;2023-09-30T05:53:11;97529.63;;;10.52;100.00
64141;BME280;50436;50.618;7.932;2023-09-30T05:55:57;97526.16;;;10.52;100.00
64141;BME280;50436;50.618;7.932;2023-09-30T05:58:45;97513.56;;;10.89;100.00
64141;BME280;50436;50.618;7.932;2023-09-30T06:01:31;97528.59;;;10.90;100.00
64141;BME280;50436;50.618;7.932;2023-09-30T06:04:21;97516.38;;;10.94;100.00
64141;BME280;50436;50.618;7.932;2023-09-30T06:07:07;97522.56;;;10.40;100.00
64141;BME280;50436;50.618;7.932;2023-09-30T06:09:56;97534.44;;;9.94;100.00
64141;BME280;50436;50.618;7.932;2023-09-30T06:12:42;97544.06;;;10.01;100.00
64141;BME280;50436;50.618;7.932;2023-09-30T06:15:28;97537.50;;;10.29;100.00
64141;BME280;50436;50.618;7.932;2023-09-30T06:18:14;97532.91;;;10.36;100.00
64141;BME280;50436;50.618;7.932;2023-09-30T06:21:00;97528.19;;;10.31;100.00
64141;BME280;50436;50.618;7.932;2023-09-30T06:23:50;97524.97;;;10.23;100.00
64141;BME280;50436;50.618;7.932;2023-09-30T06:26:38;97536.44;;;10.30;100.00
64141;BME280;50436;50.618;7.932;2023-09-30T06:29:24;97537.34;;;10.42;100.00
64141;BME280;50436;50.618;7.932;2023-09-30T06:32:12;97529.72;;;10.64;100.00
64141;BME280;50436;50.618;7.932;2023-09-30T06:34:58;97541.03;;;10.66;100.00
64141;BME280;50436;50.618;7.932;2023-09-30T06:37:44;97538.94;;;10.68;100.00
64141;BME280;50436;50.618;7.932;2023-09-30T06:40:31;97537.13;;;10.80;100.00
64141;BME280;50436;50.618;7.932;2023-09-30T06:43:16;97532.28;;;10.89;100.00
64141;BME280;50436;50.618;7.932;2023-09-30T06:46:06;97538.41;;;10.59;100.00
64141;BME280;50436;50.618;7.932;2023-09-30T06:48:54;97533.03;;;10.41;100.00
64141;BME280;50436;50.618;7.932;2023-09-30T06:51:40;97538.25;;;10.36;100.00
64141;BME280;50436;50.618;7.932;2023-09-30T06:54:26;97539.06;;;10.37;100.00
64141;BME280;50436;50.618;7.932;2023-09-30T06:57:12;97541.66;;;10.18;100.00
64141;BME280;50436;50.618;7.932;2023-09-30T06:59:58;97538.72;;;10.26;100.00
64141;BME280;50436;50.618;7.932;2023-09-30T07:02:43;97543.16;;;10.39;100.00
64141;BME280;50436;50.618;7.932;2023-09-30T07:05:30;97546.41;;;10.41;100.00
64141;BME280;50436;50.618;7.932;2023-09-30T07:08:17;97561.13;;;10.32;100.00
64141;BME280;50436;50.618;7.932;2023-09-30T07:11:03;97550.59;;;10.37;100.00
64141;BME280;50436;50.618;7.932;2023-09-30T07:13:50;97550.22;;;10.52;100.00
64141;BME280;50436;50.618;7.932;2023-09-30T07:16:36;97546.44;;;10.59;100.00
64141;BME280;50436;50.618;7.932;2023-09-30T07:19:22;97541.28;;;10.58;100.00
64141;BME280;50436;50.618;7.932;2023-09-30T07:22:08;97544.94;;;10.64;100.00
64141;BME280;50436;50.618;7.932;2023-09-30T07:24:54;97536.41;;;10.73;100.00
64141;BME280;50436;50.618;7.932;2023-09-30T07:27:40;97546.88;;;10.93;100.00
64141;BME280;50436;50.618;7.932;2023-09-30T07:30:26;97548.13;;;11.09;100.00
64141;BME280;50436;50.618;7.932;2023-09-30T07:33:11;97558.69;;;11.22;100.00
64141;BME280;50436;50.618;7.932;2023-09-30T07:35:57;97555.75;;;11.42;100.00
64141;BME280;50436;50.618;7.932;2023-09-30T07:38:44;97552.91;;;11.67;100.00
64141;BME280;50436;50.618;7.932;2023-09-30T07:41:34;97548.25;;;11.92;100.00
64141;BME280;50436;50.618;7.932;2023-09-30T07:44:22;97551.88;;;12.10;100.00
64141;BME280;50436;50.618;7.932;2023-09-30T07:47:08;97562.97;;;12.25;100.00
64141;BME280;50436;50.618;7.932;2023-09-30T07:49:57;97576.19;;;12.38;100.00
64141;BME280;50436;50.618;7.932;2023-09-30T07:52:42;97588.09;;;12.54;100.00
64141;BME280;50436;50.618;7.932;2023-09-30T07:55:29;97580.75;;;12.61;100.00
64141;BME280;50436;50.618;7.932;2023-09-30T07:58:15;97577.91;;;12.79;100.00
64141;BME280;50436;50.618;7.932;2023-09-30T08:01:00;97569.75;;;12.63;100.00
64141;BME280;50436;50.618;7.932;2023-09-30T08:03:48;97577.13;;;12.55;100.00
64141;BME280;50436;50.618;7.932;2023-09-30T08:06:34;97583.28;;;12.44;100.00
64141;BME280;50436;50.618;7.932;2023-09-30T08:09:20;97582.84;;;12.47;100.00
64141;BME280;50436;50.618;7.932;2023-09-30T08:12:08;97586.69;;;12.51;100.00
64141;BME280;50436;50.618;7.932;2023-09-30T08:14:53;97588.31;;;12.52;100.00
64141;BME280;50436;50.618;7.932;2023-09-30T08:17:40;97596.13;;;12.42;100.00
64141;BME280;50436;50.618;7.932;2023-09-30T08:20:26;97588.31;;;12.41;100.00
64141;BME280;50436;50.618;7.932;2023-09-30T08:23:12;97596.94;;;12.31;100.00
64141;BME280;50436;50.618;7.932;2023-09-30T08:25:58;97579.22;;;12.30;100.00
64141;BME280;50436;50.618;7.932;2023-09-30T08:28:47;97583.78;;;12.30;100.00
64141;BME280;50436;50.618;7.932;2023-09-30T08:31:34;97590.53;;;12.32;100.00
64141;BME280;50436;50.618;7.932;2023-09-30T08:34:20;97574.97;;;12.11;100.00
64141;BME280;50436;50.618;7.932;2023-09-30T08:37:06;97578.13;;;12.19;100.00
64141;BME280;50436;50.618;7.932;2023-09-30T08:39:52;97598.44;;;12.15;100.00
64141;BME280;50436;50.618;7.932;2023-09-30T08:42:39;97602.75;;;12.28;100.00
64141;BME280;50436;50.618;7.932;2023-09-30T08:45:28;97615.88;;;12.48;100.00
64141;BME280;50436;50.618;7.932;2023-09-30T08:48:17;97620.06;;;12.55;100.00
64141;BME280;50436;50.618;7.932;2023-09-30T08:51:03;97619.16;;;12.62;100.00
64141;BME280;50436;50.618;7.932;2023-09-30T08:53:50;97625.66;;;12.89;100.00
64141;BME280;50436;50.618;7.932;2023-09-30T08:56:40;97628.69;;;13.04;100.00
64141;BME280;50436;50.618;7.932;2023-09-30T08:59:29;97635.00;;;13.10;100.00
64141;BME280;50436;50.618;7.932;2023-09-30T09:02:16;97623.56;;;13.26;100.00
64141;BME280;50436;50.618;7.932;2023-09-30T09:05:02;97634.34;;;13.55;100.00
64141;BME280;50436;50.618;7.932;2023-09-30T09:07:48;97634.31;;;13.66;100.00
64141;BME280;50436;50.618;7.932;2023-09-30T09:10:47;97625.63;;;14.21;100.00
64141;BME280;50436;50.618;7.932;2023-09-30T09:13:48;97621.59;;;15.08;100.00
64141;BME280;50436;50.618;7.932;2023-09-30T09:16:35;97615.34;;;15.68;100.00
64141;BME280;50436;50.618;7.932;2023-09-30T09:19:21;97620.69;;;15.63;100.00
64141;BME280;50436;50.618;7.932;2023-09-30T09:22:07;97627.09;;;16.06;100.00
64141;BME280;50436;50.618;7.932;2023-09-30T09:24:53;97627.03;;;16.60;100.00
64141;BME280;50436;50.618;7.932;2023-09-30T09:27:39;97619.88;;;16.76;100.00
64141;BME280;50436;50.618;7.932;2023-09-30T09:30:26;97617.06;;;16.97;100.00
64141;BME280;50436;50.618;7.932;2023-09-30T09:33:13;97612.84;;;17.22;100.00
64141;BME280;50436;50.618;7.932;2023-09-30T09:35:59;97608.16;;;17.70;100.00
64141;BME280;50436;50.618;7.932;2023-09-30T09:38:49;97595.78;;;17.79;100.00
64141;BME280;50436;50.618;7.932;2023-09-30T09:44:40;97572.84;;;18.22;100.00
64141;BME280;50436;50.618;7.932;2023-09-30T09:47:27;97565.22;;;18.55;100.00
64141;BME280;50436;50.618;7.932;2023-09-30T09:50:14;97570.34;;;18.92;100.00
64141;BME280;50436;50.618;7.932;2023-09-30T09:53:01;97580.34;;;19.07;100.00
64141;BME280;50436;50.618;7.932;2023-09-30T09:55:49;97577.25;;;19.34;100.00
64141;BME280;50436;50.618;7.932;2023-09-30T09:58:36;97572.97;;;19.23;100.00
64141;BME280;50436;50.618;7.932;2023-09-30T10:01:27;97570.03;;;19.73;100.00
64141;BME280;50436;50.618;7.932;2023-09-30T10:04:13;97572.53;;;20.09;99.54
64141;BME280;50436;50.618;7.932;2023-09-30T10:07:01;97576.31;;;21.96;95.87
64141;BME280;50436;50.618;7.932;2023-09-30T10:09:49;97570.81;;;23.54;71.57
64141;BME280;50436;50.618;7.932;2023-09-30T10:12:37;97578.50;;;24.52;63.61
64141;BME280;50436;50.618;7.932;2023-09-30T10:18:13;97582.56;;;28.63;39.13
64141;BME280;50436;50.618;7.932;2023-09-30T10:21:07;97585.28;;;29.78;35.10
64141;BME280;50436;50.618;7.932;2023-09-30T10:30:23;97563.06;;;30.95;33.61
64141;BME280;50436;50.618;7.932;2023-09-30T10:33:08;97564.00;;;31.98;32.01
64141;BME280;50436;50.618;7.932;2023-09-30T10:35:55;97568.38;;;32.34;29.22
64141;BME280;50436;50.618;7.932;2023-09-30T10:38:41;97571.03;;;32.11;29.62
64141;BME280;50436;50.618;7.932;2023-09-30T10:41:50;97587.25;;;31.14;28.44
64141;BME280;50436;50.618;7.932;2023-09-30T10:44:36;97587.91;;;29.13;35.89
64141;BME280;50436;50.618;7.932;2023-09-30T10:50:57;97597.78;;;27.39;40.44
64141;BME280;50436;50.618;7.932;2023-09-30T10:53:48;97608.19;;;26.52;48.94
64141;BME280;50436;50.618;7.932;2023-09-30T10:56:37;97590.28;;;28.37;39.63
64141;BME280;50436;50.618;7.932;2023-09-30T10:59:23;97593.03;;;31.72;33.12
64141;BME280;50436;50.618;7.932;2023-09-30T11:02:19;97585.91;;;33.45;26.44
64141;BME280;50436;50.618;7.932;2023-09-30T11:05:09;97578.72;;;32.37;27.06
64141;BME280;50436;50.618;7.932;2023-09-30T11:07:57;97582.75;;;32.82;27.20
64141;BME280;50436;50.618;7.932;2023-09-30T11:10:48;97577.47;;;34.78;27.40
64141;BME280;50436;50.618;7.932;2023-09-30T11:13:36;97572.84;;;36.43;25.50
64141;BME280;50436;50.618;7.932;2023-09-30T11:16:22;97568.22;;;35.96;26.91
64141;BME280;50436;50.618;7.932;2023-09-30T11:19:08;97570.63;;;36.95;25.92
64141;BME280;50436;50.618;7.932;2023-09-30T11:21:55;97584.31;;;32.60;28.03
64141;BME280;50436;50.618;7.932;2023-09-30T11:24:41;97586.81;;;29.63;35.27
64141;BME280;50436;50.618;7.932;2023-09-30T11:27:29;97605.28;;;27.68;40.79
64141;BME280;50436;50.618;7.932;2023-09-30T11:30:16;97606.69;;;28.99;38.97
64141;BME280;50436;50.618;7.932;2023-09-30T11:33:03;97598.09;;;32.56;30.55
64141;BME280;50436;50.618;7.932;2023-09-30T11:38:47;97595.66;;;36.81;24.34
64141;BME280;50436;50.618;7.932;2023-09-30T11:41:37;97578.59;;;37.04;21.96
64141;BME280;50436;50.618;7.932;2023-09-30T11:44:25;97572.53;;;36.59;24.39
64141;BME280;50436;50.618;7.932;2023-09-30T11:47:11;97567.84;;;34.08;25.59
64141;BME280;50436;50.618;7.932;2023-09-30T11:49:57;97576.00;;;29.83;30.68
64141;BME280;50436;50.618;7.932;2023-09-30T11:52:46;97567.34;;;28.24;34.50
64141;BME280;50436;50.618;7.932;2023-09-30T11:55:32;97571.38;;;29.26;34.15
64141;BME280;50436;50.618;7.932;2023-09-30T11:58:18;97565.06;;;26.52;36.63
64141;BME280;50436;50.618;7.932;2023-09-30T12:01:05;97558.09;;;28.82;35.62
64141;BME280;50436;50.618;7.932;2023-09-30T12:03:52;97555.56;;;27.14;40.53
64141;BME280;50436;50.618;7.932;2023-09-30T12:06:40;97565.56;;;25.94;45.62
64141;BME280;50436;50.618;7.932;2023-09-30T12:09:26;97562.34;;;25.35;49.71
64141;BME280;50436;50.618;7.932;2023-09-30T12:12:12;97564.53;;;24.84;53.92
64141;BME280;50436;50.618;7.932;2023-09-30T12:15:00;97560.47;;;23.92;55.94
64141;BME280;50436;50.618;7.932;2023-09-30T12:17:45;97573.94;;;25.97;45.92
64141;BME280;50436;50.618;7.932;2023-09-30T12:20:31;97557.63;;;27.26;38.11
64141;BME280;50436;50.618;7.932;2023-09-30T12:23:18;97565.84;;;25.75;41.84
64141;BME280;50436;50.618;7.932;2023-09-30T12:26:04;97561.13;;;30.40;32.59
64141;BME280;50436;50.618;7.932;2023-09-30T12:28:50;97561.03;;;29.84;31.70
64141;BME280;50436;50.618;7.932;2023-09-30T12:31:36;97560.75;;;31.76;28.88
64141;BME280;50436;50.618;7.932;2023-09-30T12:34:22;97564.38;;;35.63;25.98
64141;BME280;50436;50.618;7.932;2023-09-30T12:37:12;97563.78;;;34.96;25.05
64141;BME280;50436;50.618;7.932;2023-09-30T12:39:59;97575.53;;;30.89;29.79
64141;BME280;50436;50.618;7.932;2023-09-30T12:42:44;97566.19;;;33.50;27.52
64141;BME280;50436;50.618;7.932;2023-09-30T12:45:30;97564.13;;;35.83;24.79
64141;BME280;50436;50.618;7.932;2023-09-30T12:48:16;97559.50;;;36.99;23.45
64141;BME280;50436;50.618;7.932;2023-09-30T12:51:03;97549.97;;;37.53;22.79
64141;BME280;50436;50.618;7.932;2023-09-30T12:53:51;97553.19;;;37.52;23.02
64141;BME280;50436;50.618;7.932;2023-09-30T12:56:37;97539.34;;;36.33;22.06
64141;BME280;50436;50.618;7.932;2023-09-30T12:59:23;97534.31;;;36.77;22.96
64141;BME280;50436;50.618;7.932;2023-09-30T13:02:12;97509.69;;;37.58;22.30
64141;BME280;50436;50.618;7.932;2023-09-30T13:05:00;97511.44;;;38.43;21.06
64141;BME280;50436;50.618;7.932;2023-09-30T13:07:46;97507.13;;;39.49;19.93
64141;BME280;50436;50.618;7.932;2023-09-30T13:10:32;97495.47;;;39.10;19.47
64141;BME280;50436;50.618;7.932;2023-09-30T13:13:18;97514.22;;;38.50;20.83
64141;BME280;50436;50.618;7.932;2023-09-30T13:16:04;97513.69;;;37.14;21.30
64141;BME280;50436;50.618;7.932;2023-09-30T13:18:55;97523.41;;;36.30;22.17
64141;BME280;50436;50.618;7.932;2023-09-30T13:21:41;97514.38;;;36.54;21.97
64141;BME280;50436;50.618;7.932;2023-09-30T13:24:27;97527.84;;;36.38;21.96
64141;BME280;50436;50.618;7.932;2023-09-30T13:27:12;97527.16;;;35.86;22.46
64141;BME280;50436;50.618;7.932;2023-09-30T13:30:01;97507.56;;;36.44;22.23
64141;BME280;50436;50.618;7.932;2023-09-30T13:32:47;97506.66;;;34.65;23.58
64141;BME280;50436;50.618;7.932;2023-09-30T13:35:33;97508.94;;;34.93;23.42
64141;BME280;50436;50.618;7.932;2023-09-30T13:38:19;97502.19;;;36.00;21.10
64141;BME280;50436;50.618;7.932;2023-09-30T13:41:05;97509.59;;;36.62;21.58
64141;BME280;50436;50.618;7.932;2023-09-30T13:43:50;97505.03;;;36.14;22.12
64141;BME280;50436;50.618;7.932;2023-09-30T13:46:40;97490.03;;;36.40;21.54
64141;BME280;50436;50.618;7.932;2023-09-30T13:49:26;97485.72;;;36.68;19.60
64141;BME280;50436;50.618;7.932;2023-09-30T13:52:12;97488.31;;;33.63;21.90
64141;BME280;50436;50.618;7.932;2023-09-30T13:54:57;97481.03;;;33.81;22.88
64141;BME280;50436;50.618;7.932;2023-09-30T13:57:44;97471.50;;;35.31;22.00
64141;BME280;50436;50.618;7.932;2023-09-30T14:00:30;97478.72;;;36.01;20.62
64141;BME280;50436;50.618;7.932;2023-09-30T14:03:16;97468.50;;;36.30;21.26
64141;BME280;50436;50.618;7.932;2023-09-30T14:06:11;97472.88;;;36.31;20.83
64141;BME280;50436;50.618;7.932;2023-09-30T14:08:57;97463.38;;;36.46;21.36
64141;BME280;50436;50.618;7.932;2023-09-30T14:11:43;97468.03;;;36.10;21.95
64141;BME280;50436;50.618;7.932;2023-09-30T14:14:31;97476.19;;;34.72;23.15
64141;BME280;50436;50.618;7.932;2023-09-30T14:17:18;97473.03;;;34.77;21.48
64141;BME280;50436;50.618;7.932;2023-09-30T14:20:05;97466.06;;;31.83;24.77
64141;BME280;50436;50.618;7.932;2023-09-30T14:22:51;97476.06;;;30.73;27.38
64141;BME280;50436;50.618;7.932;2023-09-30T14:25:37;97476.91;;;30.90;27.06
64141;BME280;50436;50.618;7.932;2023-09-30T14:28:23;97478.75;;;30.86;27.08
64141;BME280;50436;50.618;7.932;2023-09-30T14:31:09;97472.63;;;29.92;27.54
64141;BME280;50436;50.618;7.932;2023-09-30T14:33:55;97474.47;;;29.24;28.67
64141;BME280;50436;50.618;7.932;2023-09-30T14:36:41;97472.00;;;27.95;30.79
64141;BME280;50436;50.618;7.932;2023-09-30T14:39:26;97462.84;;;28.03;31.57
64141;BME280;50436;50.618;7.932;2023-09-30T14:42:12;97462.53;;;27.63;31.57
64141;BME280;50436;50.618;7.932;2023-09-30T14:44:58;97461.84;;;27.15;32.27
64141;BME280;50436;50.618;7.932;2023-09-30T14:47:44;97459.63;;;27.09;33.40
64141;BME280;50436;50.618;7.932;2023-09-30T14:50:29;97464.81;;;27.02;34.22
64141;BME280;50436;50.618;7.932;2023-09-30T14:53:15;97472.34;;;27.13;33.82